Impacts METAR Board
IDs:

KBOS - Boston/Logan Intl, MA, US

Updated at: 2200 UTC 18 Nov 2018
Potential Impact None Slight Moderate High
Time 18/10Z 18/11Z 18/12Z 18/13Z 18/14Z 18/15Z 18/16Z 18/17Z 18/18Z 18/19Z 18/20Z 18/21Z 18/22Z
Temp40 39 38 38 39 40 41 41 40 40 39 40
Dewpt27 25 24 24 24 23 24 25 26 27 28 29
Altim30.31 30.33 30.36 30.37 30.38 30.38 30.38 30.34 30.33 30.32 30.32 30.33
VIS10 10 10 10 10 10 10 10 10 10 10 10
CIG48 48 45 45 120 120 120 120 110 39 90 95
CoverOVCBKNBKNBKNBKNBKNOVCBKNBKNOVCOVCOVC
FltCatVFRVFRVFRVFRVFRVFRVFRVFRVFRVFRVFRVFR
WX------------------------
WDir290340360360360340290100110110120160
WSpd7 9 8 8 6 5 4 4 5 5 6 6
WGst-- -- -- -- -- -- -- -- -- -- -- --
Raw hourly METARs
KBOS 180954Z 29007KT 10SM OVC048 04/M03 A3031 RMK AO2 SLP261 BINOVC T00441028
KBOS 181054Z 34009KT 10SM BKN048 04/M04 A3033 RMK AO2 SLP270 T00391039
KBOS 181154Z 36008KT 10SM FEW030 BKN045 03/M04 A3036 RMK AO2 SLP279 T00331044 10050 20033 51027
KBOS 181254Z 36008KT 10SM FEW030 BKN045 03/M04 A3037 RMK AO2 SLP285 T00331044
KBOS 181354Z 36006KT 10SM FEW030 SCT045 BKN120 BKN250 04/M04 A3038 RMK AO2 SLP288 T00391044
KBOS 181454Z 34005KT 10SM FEW030 SCT045 BKN120 BKN250 04/M05 A3038 RMK AO2 SLP286 T00441050 50007
KBOS 181554Z 29004KT 10SM FEW030 SCT045 BKN120 OVC220 05/M04 A3038 RMK AO2 SLP285 T00501044

KBOS 181754Z 10004KT 10SM FEW030 SCT045 BKN120 BKN220 05/M04 A3034 RMK AO2 SLP272 T00501039 10050 20033 58014
KBOS 181854Z 11005KT 10SM FEW030 SCT045 BKN110 BKN220 04/M03 A3033 RMK AO2 SLP268 T00441033
KBOS 181954Z 11005KT 10SM BKN039 OVC090 04/M03 A3032 RMK AO2 SLP266 T00441028
KBOS 182054Z 12006KT 10SM SCT070 OVC090 04/M02 A3032 RMK AO2 SLP266 T00391022 56006
KBOS 182154Z 16006KT 10SM SCT070 OVC095 04/M02 A3033 RMK AO2 SLP269 T00441017



Page loaded:  22:23 UTC  |   02:23 PM Pacific  |   03:23 PM Mountain  |   04:23 PM Central  |   05:23 PM Eastern

 

ADVISORIES

FORECASTS

FORECASTS

OBSERVATIONS

USER TOOLS

ABOUT US